createdAt,value
2023-04-18T00:00:24.694Z,81.34
2023-04-18T00:02:54.113Z,81.09
2023-04-18T00:05:21.370Z,78.54
2023-04-18T00:07:48.045Z,77.54
2023-04-18T00:10:15.087Z,77.00
2023-04-18T00:12:41.596Z,75.40
2023-04-18T00:15:11.670Z,74.59
2023-04-18T00:17:41.249Z,75.27
2023-04-18T00:20:11.016Z,74.62
2023-04-18T00:22:42.855Z,73.58
2023-04-18T00:25:10.352Z,72.76
2023-04-18T00:27:38.456Z,71.95
2023-04-18T00:30:06.737Z,72.33
2023-04-18T00:32:33.265Z,70.39
2023-04-18T00:34:59.835Z,70.29
2023-04-18T00:37:26.229Z,69.37
2023-04-18T00:39:55.479Z,68.92
2023-04-18T00:42:22.079Z,67.35
2023-04-18T00:44:49.146Z,67.99
2023-04-18T00:47:19.332Z,66.42
2023-04-18T00:49:46.304Z,65.84
2023-04-18T00:52:13.101Z,65.84
2023-04-18T00:54:40.666Z,66.89
2023-04-18T00:57:07.976Z,66.55
2023-04-18T00:59:35.498Z,65.65
2023-04-18T01:02:04.016Z,66.13
2023-04-18T01:04:32.082Z,66.06
2023-04-18T01:06:59.225Z,66.74
2023-04-18T01:09:25.995Z,67.51
2023-04-18T01:11:52.929Z,67.50
2023-04-18T01:14:20.442Z,67.84
2023-04-18T01:16:47.258Z,68.23
2023-04-18T01:19:15.334Z,68.34
2023-04-18T01:21:43.848Z,68.46
2023-04-18T01:24:12.483Z,67.91
2023-04-18T01:26:39.832Z,67.88
2023-04-18T01:29:06.468Z,68.62
2023-04-18T01:31:39.624Z,67.84
2023-04-18T01:34:06.877Z,67.03
2023-04-18T01:36:33.817Z,67.08
2023-04-18T01:39:00.368Z,66.57
2023-04-18T01:41:29.089Z,66.86
2023-04-18T01:43:55.615Z,67.54
2023-04-18T01:46:22.099Z,66.78
2023-04-18T01:48:48.568Z,66.76
2023-04-18T01:51:14.993Z,66.06
2023-04-18T01:53:41.967Z,66.67
2023-04-18T01:56:10.068Z,67.22
2023-04-18T01:58:37.269Z,68.08
2023-04-18T02:01:04.180Z,67.21
2023-04-18T02:03:31.060Z,67.67
2023-04-18T02:05:57.730Z,66.99
2023-04-18T02:08:24.141Z,66.97
2023-04-18T02:10:50.646Z,67.63
2023-04-18T02:13:17.015Z,68.36
2023-04-18T02:15:46.564Z,67.37
2023-04-18T02:18:13.032Z,66.79
2023-04-18T02:20:39.908Z,68.93
2023-04-18T02:23:06.854Z,69.28
2023-04-18T02:25:33.362Z,68.04
2023-04-18T02:28:00.064Z,67.68
2023-04-18T02:30:26.590Z,67.60
2023-04-18T02:32:54.418Z,69.07
2023-04-18T02:35:21.009Z,70.19
2023-04-18T02:37:47.374Z,69.10
2023-04-18T02:40:14.062Z,69.12
2023-04-18T02:42:40.712Z,68.69
2023-04-18T02:45:07.898Z,69.30
2023-04-18T02:47:46.993Z,68.97
2023-04-18T02:50:20.631Z,69.17
2023-04-18T02:52:47.002Z,69.95
2023-04-18T02:55:13.561Z,70.60
2023-04-18T02:57:39.938Z,69.39
2023-04-18T03:00:08.454Z,69.63
2023-04-18T03:02:34.932Z,69.48
2023-04-18T03:05:01.466Z,70.46
2023-04-18T03:07:28.091Z,69.09
2023-04-18T03:09:54.602Z,69.81
2023-04-18T03:12:21.125Z,69.30
2023-04-18T03:14:47.567Z,69.85
2023-04-18T03:17:14.162Z,69.46
2023-04-18T03:19:40.631Z,70.45
2023-04-18T03:22:07.331Z,69.99
2023-04-18T03:24:33.761Z,69.01
2023-04-18T03:27:00.545Z,69.23
2023-04-18T03:29:27.009Z,68.60
2023-04-18T03:31:53.385Z,70.12
2023-04-18T03:34:19.819Z,69.81
2023-04-18T03:36:48.002Z,69.81
2023-04-18T03:39:14.846Z,70.56
2023-04-18T03:41:41.291Z,70.38
2023-04-18T03:44:07.699Z,70.54
2023-04-18T03:46:34.538Z,69.93
2023-04-18T03:49:01.101Z,70.90
2023-04-18T03:51:32.458Z,71.01
2023-04-18T03:53:58.808Z,70.81
2023-04-18T03:56:25.758Z,69.88
2023-04-18T03:58:52.172Z,71.82
2023-04-18T04:01:18.537Z,70.38
2023-04-18T04:03:44.996Z,70.96
2023-04-18T04:06:11.508Z,70.72
2023-04-18T04:08:37.883Z,71.60
2023-04-18T04:11:04.322Z,70.91
2023-04-18T04:13:30.685Z,70.23
2023-04-18T04:15:57.087Z,70.21
2023-04-18T04:18:31.073Z,70.70
2023-04-18T04:20:59.106Z,70.93
2023-04-18T04:23:26.810Z,71.51
2023-04-18T04:25:54.258Z,71.58
2023-04-18T04:28:23.211Z,70.94
2023-04-18T04:30:50.845Z,70.63
2023-04-18T04:33:19.468Z,71.22
2023-04-18T04:35:49.786Z,71.16
2023-04-18T04:38:16.699Z,71.21
2023-04-18T04:40:43.298Z,72.10
2023-04-18T04:43:12.801Z,72.53
2023-04-18T04:45:41.397Z,71.82
2023-04-18T04:48:08.868Z,71.98
2023-04-18T04:50:41.012Z,72.42
2023-04-18T04:53:11.698Z,72.02
2023-04-18T04:55:38.721Z,72.35
2023-04-18T04:58:05.208Z,72.47
2023-04-18T05:00:31.681Z,72.67
2023-04-18T05:02:58.671Z,72.76
2023-04-18T05:05:25.201Z,72.55
2023-04-18T05:07:51.614Z,73.73
2023-04-18T05:10:18.001Z,72.70
2023-04-18T05:12:44.550Z,73.29
2023-04-18T05:15:11.232Z,73.29
2023-04-18T05:17:37.646Z,73.03
2023-04-18T05:20:05.307Z,74.16
2023-04-18T05:22:32.335Z,73.07
2023-04-18T05:24:58.725Z,73.54
2023-04-18T05:27:26.557Z,73.92
2023-04-18T05:29:53.139Z,74.28
2023-04-18T05:32:19.677Z,73.64
2023-04-18T05:34:46.897Z,73.48
2023-04-18T05:37:13.539Z,74.70
2023-04-18T05:39:40.482Z,73.47
2023-04-18T05:42:06.879Z,74.03
2023-04-18T05:44:33.290Z,74.18
2023-04-18T05:46:59.748Z,74.36
2023-04-18T05:49:26.219Z,74.70
2023-04-18T05:51:52.911Z,74.56
2023-04-18T05:54:21.459Z,74.32
2023-04-18T05:56:48.205Z,74.46
2023-04-18T05:59:14.597Z,74.42
2023-04-18T06:01:41.027Z,75.56
2023-04-18T06:04:08.547Z,74.86
2023-04-18T06:06:35.767Z,75.56
2023-04-18T06:09:02.202Z,74.91
2023-04-18T06:11:28.762Z,75.40
2023-04-18T06:13:56.066Z,75.22
2023-04-18T06:16:22.579Z,75.27
2023-04-18T06:18:49.018Z,76.15
2023-04-18T06:21:15.473Z,75.33
2023-04-18T06:23:41.875Z,75.34
2023-04-18T06:26:09.209Z,75.47
2023-04-18T06:28:35.857Z,75.57
2023-04-18T06:31:02.554Z,75.28
2023-04-18T06:33:29.016Z,75.73
2023-04-18T06:35:55.733Z,74.40
2023-04-18T06:38:22.187Z,75.61
2023-04-18T06:40:48.592Z,75.01
2023-04-18T06:43:15.018Z,75.84
2023-04-18T06:45:41.639Z,74.89
2023-04-18T06:48:09.107Z,75.09
2023-04-18T06:50:35.742Z,75.23
2023-04-18T06:53:02.205Z,73.69
2023-04-18T06:55:28.659Z,74.89
2023-04-18T06:57:55.290Z,74.07
2023-04-18T07:00:21.792Z,74.36
2023-04-18T07:02:48.660Z,74.30
2023-04-18T07:05:15.139Z,74.75
2023-04-18T07:07:41.504Z,74.99
2023-04-18T07:10:09.637Z,75.30
2023-04-18T07:12:36.098Z,74.96
2023-04-18T07:15:03.867Z,74.36
2023-04-18T07:17:30.547Z,75.07
2023-04-18T07:19:57.062Z,74.80
2023-04-18T07:22:23.449Z,74.17
2023-04-18T07:24:50.010Z,75.21
2023-04-18T07:27:16.445Z,73.83
2023-04-18T07:33:02.287Z,74.92
2023-04-18T07:35:28.711Z,75.37
2023-04-18T07:37:55.151Z,74.46
2023-04-18T07:40:21.641Z,74.02
2023-04-18T07:42:48.076Z,73.92
2023-04-18T07:45:15.435Z,74.44
2023-04-18T07:47:41.873Z,74.78
2023-04-18T07:54:37.701Z,72.83
2023-04-18T07:57:04.069Z,72.72
2023-04-18T07:59:32.070Z,74.19
2023-04-18T08:01:58.666Z,72.51
2023-04-18T08:04:26.885Z,71.74
2023-04-18T08:06:57.178Z,72.65
2023-04-18T08:09:23.582Z,72.53
2023-04-18T08:11:50.083Z,71.83
2023-04-18T08:14:16.516Z,70.74
2023-04-18T08:16:43.078Z,70.61
2023-04-18T08:19:09.583Z,70.04
2023-04-18T08:21:36.212Z,70.37
2023-04-18T08:24:02.608Z,69.81
2023-04-18T08:26:29.099Z,71.41
2023-04-18T08:28:55.545Z,70.06
2023-04-18T08:31:22.044Z,69.12
2023-04-18T08:33:48.471Z,70.10
2023-04-18T08:36:14.969Z,68.06
2023-04-18T08:38:41.364Z,68.83
2023-04-18T08:41:08.428Z,68.57
2023-04-18T08:43:34.985Z,69.35
2023-04-18T08:46:01.720Z,69.07
2023-04-18T08:48:28.319Z,69.25
2023-04-18T08:50:59.215Z,69.63
2023-04-18T08:53:26.837Z,69.14
2023-04-18T08:55:55.186Z,69.11
2023-04-18T08:58:22.717Z,68.47
2023-04-18T09:00:53.547Z,67.66
2023-04-18T09:03:42.521Z,68.89
2023-04-18T09:06:14.286Z,68.14
2023-04-18T09:08:43.265Z,67.22
2023-04-18T09:11:28.703Z,68.26
2023-04-18T09:13:58.609Z,68.46
2023-04-18T09:16:27.611Z,68.15
2023-04-18T09:19:11.075Z,66.86
2023-04-18T09:21:44.394Z,67.48
2023-04-18T09:24:23.878Z,66.76
2023-04-18T09:26:53.728Z,65.65
2023-04-18T09:29:22.493Z,64.43
2023-04-18T09:32:01.103Z,65.57
2023-04-18T09:34:28.991Z,65.56
2023-04-18T09:37:12.767Z,66.09
2023-04-18T09:39:41.204Z,64.84
2023-04-18T09:42:08.499Z,66.29
2023-04-18T09:44:34.926Z,65.21
2023-04-18T09:47:01.322Z,65.16
2023-04-18T09:49:28.617Z,64.70
2023-04-18T09:51:56.005Z,63.17
2023-04-18T09:54:24.688Z,65.24
2023-04-18T09:56:54.103Z,65.24
2023-04-18T09:59:42.767Z,65.93
2023-04-18T10:02:16.321Z,65.58
2023-04-18T10:04:47.007Z,64.88
2023-04-18T10:07:14.753Z,65.28
2023-04-18T10:09:44.514Z,65.76
2023-04-18T10:12:12.602Z,66.48
2023-04-18T10:14:43.115Z,65.79
2023-04-18T10:17:11.011Z,64.90
2023-04-18T10:19:41.943Z,64.89
2023-04-18T10:22:08.358Z,65.75
2023-04-18T10:24:53.838Z,66.14
2023-04-18T10:27:48.455Z,66.04
2023-04-18T10:30:15.980Z,64.54
2023-04-18T10:32:42.558Z,65.49
2023-04-18T10:35:10.802Z,64.31
2023-04-18T10:37:52.524Z,64.17
2023-04-18T10:40:33.454Z,64.86
2023-04-18T10:43:00.368Z,63.25
2023-04-18T10:45:29.556Z,64.05
2023-04-18T10:48:31.175Z,63.02
2023-04-18T10:51:12.724Z,62.69
2023-04-18T10:53:39.357Z,62.86
2023-04-18T10:56:07.893Z,62.51
2023-04-18T10:58:35.199Z,60.88
2023-04-18T11:01:03.321Z,62.48
2023-04-18T11:03:34.236Z,62.13
2023-04-18T11:06:03.992Z,60.19
2023-04-18T11:08:31.211Z,61.04
2023-04-18T11:10:58.494Z,62.92
2023-04-18T11:13:25.038Z,61.43
2023-04-18T11:15:51.447Z,62.81
2023-04-18T11:18:17.952Z,62.96
2023-04-18T11:20:50.915Z,61.82
2023-04-18T11:23:21.340Z,63.65
2023-04-18T11:25:50.393Z,63.37
2023-04-18T11:28:20.221Z,62.92
2023-04-18T11:30:46.957Z,62.11
2023-04-18T11:33:14.548Z,62.06
2023-04-18T11:35:43.090Z,62.18
2023-04-18T11:38:12.808Z,63.00
2023-04-18T11:40:39.760Z,62.81
2023-04-18T11:43:07.318Z,63.28
2023-04-18T11:45:33.856Z,63.23
2023-04-18T11:48:01.029Z,64.03
2023-04-18T11:50:27.718Z,63.23
2023-04-18T11:52:55.013Z,64.11
2023-04-18T11:55:27.090Z,62.43
2023-04-18T11:57:58.237Z,60.93
2023-04-18T12:00:38.649Z,62.07
2023-04-18T12:03:16.143Z,62.62
2023-04-18T12:05:43.191Z,63.12
2023-04-18T12:08:17.223Z,62.45
2023-04-18T12:10:51.230Z,63.07
2023-04-18T12:13:18.741Z,62.95
2023-04-18T12:15:46.460Z,62.67
2023-04-18T12:18:15.327Z,63.31
2023-04-18T12:20:46.160Z,63.44
2023-04-18T12:23:33.612Z,62.81
2023-04-18T12:26:01.807Z,62.36
2023-04-18T12:28:28.578Z,62.25
2023-04-18T12:30:55.860Z,63.03
2023-04-18T12:33:22.424Z,62.09
2023-04-18T12:35:49.712Z,62.13
2023-04-18T12:38:20.374Z,63.17
2023-04-18T12:40:46.850Z,65.01
2023-04-18T12:43:13.358Z,64.78
2023-04-18T12:45:39.878Z,64.54
2023-04-18T12:48:06.932Z,63.62
2023-04-18T12:50:33.522Z,62.90
2023-04-18T12:53:01.380Z,62.86
2023-04-18T12:55:28.994Z,63.71
2023-04-18T12:57:55.940Z,63.36
2023-04-18T13:00:24.117Z,63.94
2023-04-18T13:02:52.415Z,65.41
2023-04-18T13:05:20.819Z,64.47
2023-04-18T13:07:49.348Z,65.38
2023-04-18T13:10:21.492Z,65.91
2023-04-18T13:12:49.226Z,65.03
2023-04-18T13:15:16.124Z,65.73
2023-04-18T13:17:43.298Z,65.28
2023-04-18T13:20:12.407Z,66.06
2023-04-18T13:22:40.553Z,65.31
2023-04-18T13:25:10.316Z,65.85
2023-04-18T13:27:41.901Z,66.04
2023-04-18T13:30:10.643Z,65.26
2023-04-18T13:32:38.945Z,65.50
2023-04-18T13:35:08.202Z,65.21
2023-04-18T13:37:34.648Z,66.92
2023-04-18T13:40:01.051Z,65.04
2023-04-18T13:42:27.465Z,65.63
2023-04-18T13:44:54.372Z,65.33
2023-04-18T13:47:20.787Z,66.42
2023-04-18T13:49:47.164Z,65.22
2023-04-18T13:52:13.902Z,64.97
2023-04-18T13:54:41.306Z,63.81
2023-04-18T13:57:11.541Z,64.11
2023-04-18T13:59:40.541Z,64.58
2023-04-18T14:02:08.437Z,63.83
2023-04-18T14:04:35.417Z,62.25
2023-04-18T14:07:03.343Z,61.00
2023-04-18T14:09:29.836Z,58.42
2023-04-18T14:11:58.181Z,58.15
2023-04-18T14:14:24.919Z,60.27
2023-04-18T14:16:51.304Z,59.72
2023-04-18T14:19:17.953Z,59.06
2023-04-18T14:21:44.342Z,59.54
2023-04-18T14:24:12.137Z,60.68
2023-04-18T14:26:38.555Z,60.87
2023-04-18T14:29:05.095Z,60.49
2023-04-18T14:31:31.655Z,61.06
2023-04-18T14:33:58.130Z,60.77
2023-04-18T14:36:24.566Z,60.44
2023-04-18T14:38:50.973Z,59.88
2023-04-18T14:41:17.453Z,60.39
2023-04-18T14:43:44.169Z,58.74
2023-04-18T14:46:12.993Z,59.63
2023-04-18T14:48:39.506Z,59.86
2023-04-18T14:51:06.155Z,60.39
2023-04-18T14:53:32.598Z,59.95
2023-04-18T14:55:59.054Z,57.70
2023-04-18T14:58:25.690Z,58.76
2023-04-18T15:00:52.121Z,59.34
2023-04-18T15:03:18.788Z,59.42
2023-04-18T15:05:48.332Z,57.43
2023-04-18T15:08:17.929Z,57.89
2023-04-18T15:10:44.615Z,56.17
2023-04-18T15:13:11.559Z,57.12
2023-04-18T15:15:39.735Z,56.82
2023-04-18T15:18:08.050Z,57.12
2023-04-18T15:20:36.108Z,57.08
2023-04-18T15:23:03.222Z,56.92
2023-04-18T15:25:30.590Z,57.68
2023-04-18T15:27:58.211Z,58.28
2023-04-18T15:30:25.241Z,56.74
2023-04-18T15:32:52.289Z,58.07
2023-04-18T15:35:18.845Z,55.88
2023-04-18T15:37:45.257Z,56.61
2023-04-18T15:40:16.015Z,57.66
2023-04-18T15:42:43.488Z,56.96
2023-04-18T15:45:10.454Z,56.94
2023-04-18T15:47:37.231Z,55.48
2023-04-18T15:50:04.065Z,55.54
2023-04-18T15:52:30.698Z,56.36
2023-04-18T15:54:57.913Z,56.45
2023-04-18T15:57:24.355Z,56.42
2023-04-18T15:59:50.839Z,58.23
2023-04-18T16:02:17.289Z,57.24
2023-04-18T16:04:43.859Z,55.63
2023-04-18T16:07:11.138Z,55.46
2023-04-18T16:09:37.620Z,56.00
2023-04-18T16:12:04.734Z,56.94
2023-04-18T16:14:31.319Z,55.25
2023-04-18T16:16:58.943Z,54.87
2023-04-18T16:19:25.418Z,55.68
2023-04-18T16:21:51.937Z,56.79
2023-04-18T16:24:18.683Z,56.92
2023-04-18T16:26:45.170Z,57.45
2023-04-18T16:29:11.565Z,57.76
2023-04-18T16:31:38.229Z,58.49
2023-04-18T16:34:04.767Z,57.63
2023-04-18T16:36:34.295Z,57.86
2023-04-18T16:39:00.806Z,57.09
2023-04-18T16:41:27.284Z,58.03
2023-04-18T16:43:53.955Z,58.27
2023-04-18T16:46:20.356Z,57.62
2023-04-18T16:48:47.048Z,58.65
2023-04-18T16:51:13.567Z,57.72
2023-04-18T16:53:40.007Z,57.43
2023-04-18T16:56:07.891Z,58.46
2023-04-18T16:58:34.376Z,58.80
2023-04-18T17:01:03.854Z,58.05
2023-04-18T17:03:30.555Z,58.61
2023-04-18T17:05:57.117Z,59.93
2023-04-18T17:08:25.713Z,60.70
2023-04-18T17:10:52.681Z,58.55
2023-04-18T17:13:19.170Z,58.88
2023-04-18T17:15:45.595Z,59.48
2023-04-18T17:18:12.192Z,58.67
2023-04-18T17:20:38.624Z,59.24
2023-04-18T17:23:05.095Z,59.35
2023-04-18T17:25:31.789Z,59.78
2023-04-18T17:27:58.257Z,61.42
2023-04-18T17:30:24.663Z,60.58
2023-04-18T17:32:51.438Z,60.82
2023-04-18T17:35:17.967Z,61.44
2023-04-18T17:37:46.410Z,61.57
2023-04-18T17:40:13.174Z,60.37
2023-04-18T17:42:39.976Z,61.05
2023-04-18T17:45:08.082Z,60.18
2023-04-18T17:47:36.346Z,61.30
2023-04-18T17:50:06.948Z,62.14
2023-04-18T17:52:33.420Z,61.82
2023-04-18T17:55:01.482Z,62.05
2023-04-18T17:57:30.220Z,60.33
2023-04-18T17:59:56.718Z,61.32
2023-04-18T18:02:28.073Z,62.64
2023-04-18T18:04:54.577Z,61.25
2023-04-18T18:07:21.002Z,61.28
2023-04-18T18:09:47.421Z,61.74
2023-04-18T18:12:13.939Z,62.57
2023-04-18T18:14:40.502Z,62.48
2023-04-18T18:17:07.164Z,62.52
2023-04-18T18:19:36.205Z,63.76
2023-04-18T18:22:02.730Z,63.22
2023-04-18T18:24:29.230Z,62.65
2023-04-18T18:26:56.748Z,62.54
2023-04-18T18:29:23.187Z,62.17
2023-04-18T18:31:49.671Z,61.77
2023-04-18T18:34:16.861Z,63.34
2023-04-18T18:36:43.326Z,63.76
2023-04-18T18:39:11.015Z,63.10
2023-04-18T18:41:37.465Z,62.99
2023-04-18T18:44:04.007Z,64.71
2023-04-18T18:46:30.926Z,64.08
2023-04-18T18:48:57.416Z,64.80
2023-04-18T18:51:23.888Z,65.35
2023-04-18T18:53:50.489Z,65.02
2023-04-18T18:56:16.940Z,64.97
2023-04-18T18:58:43.799Z,63.94
2023-04-18T19:01:11.422Z,65.07
2023-04-18T19:03:37.953Z,65.10
2023-04-18T19:06:05.849Z,64.43
2023-04-18T19:08:32.316Z,64.55
2023-04-18T19:10:58.679Z,65.72
2023-04-18T19:13:25.136Z,66.05
2023-04-18T19:15:51.724Z,66.51
2023-04-18T19:18:19.975Z,65.65
2023-04-18T19:20:46.970Z,64.42
2023-04-18T19:23:13.417Z,64.72
2023-04-18T19:25:39.831Z,65.29
2023-04-18T19:28:06.588Z,64.53
2023-04-18T19:30:33.040Z,65.48
2023-04-18T19:32:59.942Z,65.97
2023-04-18T19:35:27.889Z,65.22
2023-04-18T19:38:01.241Z,65.50
2023-04-18T19:40:30.831Z,64.95
2023-04-18T19:42:57.803Z,64.75
2023-04-18T19:45:24.612Z,65.25
2023-04-18T19:47:51.149Z,65.93
2023-04-18T19:50:17.937Z,65.35
2023-04-18T19:52:44.416Z,65.27
2023-04-18T19:55:11.046Z,65.25
2023-04-18T19:57:42.071Z,66.46
2023-04-18T20:00:11.049Z,65.97
2023-04-18T20:02:38.326Z,66.23
2023-04-18T20:05:06.280Z,66.89
2023-04-18T20:07:33.470Z,66.41
2023-04-18T20:10:00.420Z,66.67
2023-04-18T20:12:27.055Z,66.28
2023-04-18T20:14:55.034Z,66.62
2023-04-18T20:17:21.704Z,66.67
2023-04-18T20:19:49.656Z,67.47
2023-04-18T20:22:16.765Z,67.35
2023-04-18T20:24:45.021Z,66.46
2023-04-18T20:27:11.930Z,67.02
2023-04-18T20:29:38.337Z,66.48
2023-04-18T20:32:05.066Z,66.96
2023-04-18T20:34:31.491Z,67.53
2023-04-18T20:36:58.669Z,67.29
2023-04-18T20:39:25.232Z,67.27
2023-04-18T20:41:52.351Z,67.54
2023-04-18T20:44:22.099Z,67.24
2023-04-18T20:46:48.542Z,67.63
2023-04-18T20:49:15.066Z,67.22
2023-04-18T20:51:41.697Z,67.34
2023-04-18T20:54:08.439Z,66.88
2023-04-18T20:56:36.514Z,67.44
2023-04-18T20:59:04.658Z,68.00
2023-04-18T21:01:31.403Z,67.59
2023-04-18T21:03:58.186Z,68.34
2023-04-18T21:06:24.775Z,68.04
2023-04-18T21:08:51.170Z,68.33
2023-04-18T21:11:17.613Z,68.52
2023-04-18T21:13:43.997Z,68.21
2023-04-18T21:16:10.772Z,68.45
2023-04-18T21:18:37.280Z,68.17
2023-04-18T21:21:04.506Z,67.70
2023-04-18T21:23:30.889Z,68.53
2023-04-18T21:25:57.333Z,68.27
2023-04-18T21:28:23.793Z,68.79
2023-04-18T21:30:50.696Z,67.59
2023-04-18T21:33:17.187Z,68.87
2023-04-18T21:35:43.573Z,68.46
2023-04-18T21:38:09.936Z,68.20
2023-04-18T21:40:37.457Z,69.34
2023-04-18T21:43:03.977Z,68.33
2023-04-18T21:45:30.380Z,69.29
2023-04-18T21:47:56.866Z,68.42
2023-04-18T21:50:23.286Z,68.97
2023-04-18T21:52:49.688Z,69.02
2023-04-18T21:55:17.463Z,69.31
2023-04-18T21:57:43.954Z,69.32
2023-04-18T22:00:11.203Z,70.23
2023-04-18T22:02:37.844Z,69.71
2023-04-18T22:05:04.719Z,70.19
2023-04-18T22:07:31.175Z,70.36
2023-04-18T22:09:59.596Z,70.35
2023-04-18T22:12:26.299Z,69.83
2023-04-18T22:14:52.921Z,70.45
2023-04-18T22:17:20.807Z,70.31
2023-04-18T22:19:49.736Z,70.57
2023-04-18T22:22:16.456Z,70.36
2023-04-18T22:24:43.974Z,70.80
2023-04-18T22:27:11.416Z,71.22
2023-04-18T22:29:37.839Z,71.79
2023-04-18T22:32:04.465Z,71.69
2023-04-18T22:34:30.940Z,71.71
2023-04-18T22:36:57.297Z,71.39
2023-04-18T22:39:24.638Z,71.39
2023-04-18T22:41:51.079Z,71.60
2023-04-18T22:44:17.655Z,72.46
2023-04-18T22:46:44.542Z,71.88
2023-04-18T22:49:10.965Z,72.23
2023-04-18T22:51:38.145Z,72.03
2023-04-18T22:54:05.182Z,72.17
2023-04-18T22:56:31.558Z,72.93
2023-04-18T22:58:57.947Z,73.18
2023-04-18T23:01:24.337Z,72.87
2023-04-18T23:03:50.977Z,72.12
2023-04-18T23:06:17.519Z,73.00
2023-04-18T23:08:43.987Z,72.66
2023-04-18T23:11:11.159Z,73.18
2023-04-18T23:13:37.666Z,73.19
2023-04-18T23:16:04.383Z,73.42
2023-04-18T23:18:30.832Z,73.32
2023-04-18T23:20:57.220Z,73.69
2023-04-18T23:23:23.684Z,74.02
2023-04-18T23:25:50.083Z,74.42
2023-04-18T23:28:17.120Z,74.15
2023-04-18T23:30:43.786Z,73.81
2023-04-18T23:33:10.398Z,73.78
2023-04-18T23:35:36.889Z,74.59
2023-04-18T23:38:03.471Z,74.31
2023-04-18T23:40:29.950Z,74.94
2023-04-18T23:42:57.052Z,74.91
2023-04-18T23:45:24.325Z,75.07
2023-04-18T23:47:52.024Z,74.70
2023-04-18T23:50:18.594Z,75.96
2023-04-18T23:52:45.095Z,75.58
2023-04-18T23:55:11.788Z,75.60
2023-04-18T23:57:38.363Z,75.81
